sensor_id;sensor_type;location;lat;lon;timestamp;P1;durP1;ratioP1;P2;durP2;ratioP2
24153;SDS011;12312;53.362;-1.518;2023-05-10T00:01:07;20.17;;;5.63;;
24153;SDS011;12312;53.362;-1.518;2023-05-10T00:03:52;16.60;;;3.83;;
24153;SDS011;12312;53.362;-1.518;2023-05-10T00:06:36;14.95;;;3.30;;
24153;SDS011;12312;53.362;-1.518;2023-05-10T00:09:20;12.65;;;4.22;;
24153;SDS011;12312;53.362;-1.518;2023-05-10T00:12:04;10.77;;;3.38;;
24153;SDS011;12312;53.362;-1.518;2023-05-10T00:14:48;14.77;;;3.45;;
24153;SDS011;12312;53.362;-1.518;2023-05-10T00:17:32;19.38;;;3.72;;
24153;SDS011;12312;53.362;-1.518;2023-05-10T00:20:16;10.98;;;3.47;;
24153;SDS011;12312;53.362;-1.518;2023-05-10T00:23:00;14.52;;;3.50;;
24153;SDS011;12312;53.362;-1.518;2023-05-10T00:25:44;26.55;;;4.25;;
24153;SDS011;12312;53.362;-1.518;2023-05-10T00:28:28;14.77;;;3.63;;
24153;SDS011;12312;53.362;-1.518;2023-05-10T00:31:13;13.38;;;3.80;;
24153;SDS011;12312;53.362;-1.518;2023-05-10T00:33:58;16.20;;;3.83;;
24153;SDS011;12312;53.362;-1.518;2023-05-10T00:36:42;14.68;;;3.80;;
24153;SDS011;12312;53.362;-1.518;2023-05-10T00:39:26;15.32;;;4.13;;
24153;SDS011;12312;53.362;-1.518;2023-05-10T00:42:12;16.40;;;3.63;;
24153;SDS011;12312;53.362;-1.518;2023-05-10T00:44:56;12.43;;;4.10;;
24153;SDS011;12312;53.362;-1.518;2023-05-10T00:47:41;16.20;;;4.30;;
24153;SDS011;12312;53.362;-1.518;2023-05-10T00:50:25;16.63;;;4.03;;
24153;SDS011;12312;53.362;-1.518;2023-05-10T00:53:09;14.68;;;3.85;;
24153;SDS011;12312;53.362;-1.518;2023-05-10T00:55:54;18.50;;;4.68;;
24153;SDS011;12312;53.362;-1.518;2023-05-10T00:58:39;15.18;;;3.88;;
24153;SDS011;12312;53.362;-1.518;2023-05-10T01:01:24;18.42;;;3.58;;
24153;SDS011;12312;53.362;-1.518;2023-05-10T01:04:08;18.83;;;4.47;;
24153;SDS011;12312;53.362;-1.518;2023-05-10T01:06:54;16.27;;;4.28;;
24153;SDS011;12312;53.362;-1.518;2023-05-10T01:09:38;19.27;;;4.13;;
24153;SDS011;12312;53.362;-1.518;2023-05-10T01:12:22;12.45;;;3.53;;
24153;SDS011;12312;53.362;-1.518;2023-05-10T01:15:07;17.27;;;3.80;;
24153;SDS011;12312;53.362;-1.518;2023-05-10T01:17:52;14.70;;;3.30;;
24153;SDS011;12312;53.362;-1.518;2023-05-10T01:20:40;11.63;;;3.50;;
24153;SDS011;12312;53.362;-1.518;2023-05-10T01:23:37;17.17;;;3.08;;
24153;SDS011;12312;53.362;-1.518;2023-05-10T01:39:05;17.13;;;3.47;;
24153;SDS011;12312;53.362;-1.518;2023-05-10T01:42:08;13.00;;;3.17;;
24153;SDS011;12312;53.362;-1.518;2023-05-10T01:47:50;10.63;;;3.63;;
24153;SDS011;12312;53.362;-1.518;2023-05-10T01:50:49;22.08;;;3.42;;
24153;SDS011;12312;53.362;-1.518;2023-05-10T01:53:34;21.90;;;4.35;;
24153;SDS011;12312;53.362;-1.518;2023-05-10T01:56:23;16.08;;;3.30;;
24153;SDS011;12312;53.362;-1.518;2023-05-10T01:59:11;20.20;;;4.03;;
24153;SDS011;12312;53.362;-1.518;2023-05-10T02:01:58;16.55;;;4.38;;
24153;SDS011;12312;53.362;-1.518;2023-05-10T02:04:43;16.52;;;3.90;;
24153;SDS011;12312;53.362;-1.518;2023-05-10T02:07:29;14.82;;;4.03;;
24153;SDS011;12312;53.362;-1.518;2023-05-10T02:10:15;19.05;;;4.63;;
24153;SDS011;12312;53.362;-1.518;2023-05-10T02:13:00;21.23;;;4.85;;
24153;SDS011;12312;53.362;-1.518;2023-05-10T02:15:47;19.33;;;5.28;;
24153;SDS011;12312;53.362;-1.518;2023-05-10T02:18:33;19.30;;;4.25;;
24153;SDS011;12312;53.362;-1.518;2023-05-10T02:21:20;22.45;;;5.38;;
24153;SDS011;12312;53.362;-1.518;2023-05-10T02:24:05;20.83;;;4.72;;
24153;SDS011;12312;53.362;-1.518;2023-05-10T02:26:51;18.17;;;5.40;;
24153;SDS011;12312;53.362;-1.518;2023-05-10T02:29:39;19.80;;;5.15;;
24153;SDS011;12312;53.362;-1.518;2023-05-10T02:32:26;15.93;;;4.80;;
24153;SDS011;12312;53.362;-1.518;2023-05-10T02:35:11;20.05;;;5.25;;
24153;SDS011;12312;53.362;-1.518;2023-05-10T02:37:56;25.75;;;6.47;;
24153;SDS011;12312;53.362;-1.518;2023-05-10T02:40:42;20.52;;;5.15;;
24153;SDS011;12312;53.362;-1.518;2023-05-10T02:43:27;17.25;;;5.57;;
24153;SDS011;12312;53.362;-1.518;2023-05-10T02:46:13;15.90;;;5.38;;
24153;SDS011;12312;53.362;-1.518;2023-05-10T02:48:57;24.08;;;6.10;;
24153;SDS011;12312;53.362;-1.518;2023-05-10T02:51:44;21.02;;;5.70;;
24153;SDS011;12312;53.362;-1.518;2023-05-10T02:54:33;20.75;;;5.93;;
24153;SDS011;12312;53.362;-1.518;2023-05-10T02:57:25;22.25;;;5.22;;
24153;SDS011;12312;53.362;-1.518;2023-05-10T03:00:12;22.90;;;5.95;;
24153;SDS011;12312;53.362;-1.518;2023-05-10T03:02:57;21.23;;;6.38;;
24153;SDS011;12312;53.362;-1.518;2023-05-10T03:05:41;21.25;;;5.53;;
24153;SDS011;12312;53.362;-1.518;2023-05-10T03:08:25;15.80;;;5.85;;
24153;SDS011;12312;53.362;-1.518;2023-05-10T03:18:04;18.60;;;5.38;;
24153;SDS011;12312;53.362;-1.518;2023-05-10T03:20:50;18.45;;;6.22;;
24153;SDS011;12312;53.362;-1.518;2023-05-10T03:26:27;18.00;;;5.72;;
24153;SDS011;12312;53.362;-1.518;2023-05-10T03:29:12;16.58;;;6.53;;
24153;SDS011;12312;53.362;-1.518;2023-05-10T03:31:58;23.70;;;7.20;;
24153;SDS011;12312;53.362;-1.518;2023-05-10T03:34:43;15.38;;;6.30;;
24153;SDS011;12312;53.362;-1.518;2023-05-10T03:37:27;18.65;;;6.40;;
24153;SDS011;12312;53.362;-1.518;2023-05-10T03:40:11;19.88;;;6.25;;
24153;SDS011;12312;53.362;-1.518;2023-05-10T03:42:55;17.75;;;6.35;;
24153;SDS011;12312;53.362;-1.518;2023-05-10T03:45:39;19.33;;;6.47;;
24153;SDS011;12312;53.362;-1.518;2023-05-10T03:48:23;16.90;;;6.10;;
24153;SDS011;12312;53.362;-1.518;2023-05-10T03:51:07;19.83;;;6.22;;
24153;SDS011;12312;53.362;-1.518;2023-05-10T03:53:52;21.05;;;6.65;;
24153;SDS011;12312;53.362;-1.518;2023-05-10T03:56:36;18.92;;;5.70;;
24153;SDS011;12312;53.362;-1.518;2023-05-10T03:59:20;18.85;;;6.93;;
24153;SDS011;12312;53.362;-1.518;2023-05-10T04:02:04;19.58;;;6.05;;
24153;SDS011;12312;53.362;-1.518;2023-05-10T04:04:48;21.27;;;6.65;;
24153;SDS011;12312;53.362;-1.518;2023-05-10T04:07:32;23.52;;;7.90;;
24153;SDS011;12312;53.362;-1.518;2023-05-10T04:10:16;22.30;;;7.78;;
24153;SDS011;12312;53.362;-1.518;2023-05-10T04:13:01;20.67;;;7.05;;
24153;SDS011;12312;53.362;-1.518;2023-05-10T04:15:45;23.48;;;7.60;;
24153;SDS011;12312;53.362;-1.518;2023-05-10T04:18:29;21.77;;;6.93;;
24153;SDS011;12312;53.362;-1.518;2023-05-10T04:21:13;24.85;;;8.02;;
24153;SDS011;12312;53.362;-1.518;2023-05-10T04:23:58;24.13;;;8.40;;
24153;SDS011;12312;53.362;-1.518;2023-05-10T04:26:42;19.73;;;7.70;;
24153;SDS011;12312;53.362;-1.518;2023-05-10T04:29:26;22.20;;;7.57;;
24153;SDS011;12312;53.362;-1.518;2023-05-10T04:32:10;22.45;;;8.25;;
24153;SDS011;12312;53.362;-1.518;2023-05-10T04:34:54;30.55;;;8.70;;
24153;SDS011;12312;53.362;-1.518;2023-05-10T04:37:38;25.25;;;9.32;;
24153;SDS011;12312;53.362;-1.518;2023-05-10T04:40:22;21.35;;;7.80;;
24153;SDS011;12312;53.362;-1.518;2023-05-10T04:43:06;27.83;;;9.32;;
24153;SDS011;12312;53.362;-1.518;2023-05-10T04:45:50;24.10;;;9.20;;
24153;SDS011;12312;53.362;-1.518;2023-05-10T04:48:34;26.30;;;8.40;;
24153;SDS011;12312;53.362;-1.518;2023-05-10T04:51:19;25.90;;;8.60;;
24153;SDS011;12312;53.362;-1.518;2023-05-10T04:54:03;19.45;;;8.13;;
24153;SDS011;12312;53.362;-1.518;2023-05-10T04:56:47;25.50;;;9.30;;
24153;SDS011;12312;53.362;-1.518;2023-05-10T04:59:31;27.45;;;8.68;;
24153;SDS011;12312;53.362;-1.518;2023-05-10T05:02:15;20.67;;;7.95;;
24153;SDS011;12312;53.362;-1.518;2023-05-10T05:05:00;23.42;;;8.40;;
24153;SDS011;12312;53.362;-1.518;2023-05-10T05:07:44;25.02;;;8.38;;
24153;SDS011;12312;53.362;-1.518;2023-05-10T05:10:28;23.08;;;8.43;;
24153;SDS011;12312;53.362;-1.518;2023-05-10T05:13:12;23.13;;;8.35;;
24153;SDS011;12312;53.362;-1.518;2023-05-10T05:15:56;32.13;;;8.70;;
24153;SDS011;12312;53.362;-1.518;2023-05-10T05:18:40;21.08;;;8.65;;
24153;SDS011;12312;53.362;-1.518;2023-05-10T05:21:24;24.48;;;8.95;;
24153;SDS011;12312;53.362;-1.518;2023-05-10T05:26:55;21.60;;;7.47;;
24153;SDS011;12312;53.362;-1.518;2023-05-10T05:29:40;23.30;;;8.15;;
24153;SDS011;12312;53.362;-1.518;2023-05-10T05:32:24;20.58;;;7.68;;
24153;SDS011;12312;53.362;-1.518;2023-05-10T05:35:08;26.48;;;8.43;;
24153;SDS011;12312;53.362;-1.518;2023-05-10T05:37:52;27.52;;;8.13;;
24153;SDS011;12312;53.362;-1.518;2023-05-10T05:40:37;19.80;;;7.32;;
24153;SDS011;12312;53.362;-1.518;2023-05-10T05:43:20;23.42;;;8.05;;
24153;SDS011;12312;53.362;-1.518;2023-05-10T05:46:05;21.77;;;8.00;;
24153;SDS011;12312;53.362;-1.518;2023-05-10T05:48:49;24.23;;;8.70;;
24153;SDS011;12312;53.362;-1.518;2023-05-10T05:51:33;23.27;;;7.85;;
24153;SDS011;12312;53.362;-1.518;2023-05-10T05:54:18;21.27;;;7.78;;
24153;SDS011;12312;53.362;-1.518;2023-05-10T05:57:02;24.27;;;8.20;;
24153;SDS011;12312;53.362;-1.518;2023-05-10T05:59:46;21.75;;;8.32;;
24153;SDS011;12312;53.362;-1.518;2023-05-10T06:02:31;26.67;;;8.77;;
24153;SDS011;12312;53.362;-1.518;2023-05-10T06:05:16;24.33;;;9.02;;
24153;SDS011;12312;53.362;-1.518;2023-05-10T06:08:00;21.13;;;9.18;;
24153;SDS011;12312;53.362;-1.518;2023-05-10T06:10:44;24.90;;;9.60;;
24153;SDS011;12312;53.362;-1.518;2023-05-10T06:13:28;28.25;;;8.25;;
24153;SDS011;12312;53.362;-1.518;2023-05-10T06:16:15;21.42;;;8.57;;
24153;SDS011;12312;53.362;-1.518;2023-05-10T06:18:59;28.65;;;8.90;;
24153;SDS011;12312;53.362;-1.518;2023-05-10T06:21:43;18.60;;;8.23;;
24153;SDS011;12312;53.362;-1.518;2023-05-10T06:24:27;19.58;;;8.30;;
24153;SDS011;12312;53.362;-1.518;2023-05-10T06:27:11;18.23;;;7.45;;
24153;SDS011;12312;53.362;-1.518;2023-05-10T06:29:55;19.23;;;6.93;;
24153;SDS011;12312;53.362;-1.518;2023-05-10T06:32:39;20.40;;;7.32;;
24153;SDS011;12312;53.362;-1.518;2023-05-10T06:35:23;16.00;;;6.45;;
24153;SDS011;12312;53.362;-1.518;2023-05-10T06:38:07;20.90;;;6.80;;
24153;SDS011;12312;53.362;-1.518;2023-05-10T06:40:51;15.90;;;6.82;;
24153;SDS011;12312;53.362;-1.518;2023-05-10T06:43:36;17.73;;;6.75;;
24153;SDS011;12312;53.362;-1.518;2023-05-10T06:46:23;13.38;;;5.82;;
24153;SDS011;12312;53.362;-1.518;2023-05-10T06:49:08;13.90;;;5.53;;
24153;SDS011;12312;53.362;-1.518;2023-05-10T06:51:52;10.25;;;5.07;;
24153;SDS011;12312;53.362;-1.518;2023-05-10T06:54:36;18.00;;;5.82;;
24153;SDS011;12312;53.362;-1.518;2023-05-10T06:57:20;13.73;;;5.43;;
24153;SDS011;12312;53.362;-1.518;2023-05-10T07:00:04;16.15;;;5.55;;
24153;SDS011;12312;53.362;-1.518;2023-05-10T07:02:49;13.18;;;5.50;;
24153;SDS011;12312;53.362;-1.518;2023-05-10T07:05:33;13.48;;;5.53;;
24153;SDS011;12312;53.362;-1.518;2023-05-10T07:08:17;16.35;;;5.00;;
24153;SDS011;12312;53.362;-1.518;2023-05-10T07:11:05;13.52;;;5.30;;
24153;SDS011;12312;53.362;-1.518;2023-05-10T07:13:53;14.45;;;5.22;;
24153;SDS011;12312;53.362;-1.518;2023-05-10T07:16:37;12.55;;;4.75;;
24153;SDS011;12312;53.362;-1.518;2023-05-10T07:19:21;12.10;;;4.70;;
24153;SDS011;12312;53.362;-1.518;2023-05-10T07:22:06;19.05;;;4.78;;
24153;SDS011;12312;53.362;-1.518;2023-05-10T07:24:50;10.48;;;4.60;;
24153;SDS011;12312;53.362;-1.518;2023-05-10T07:27:34;13.82;;;4.88;;
24153;SDS011;12312;53.362;-1.518;2023-05-10T07:30:18;14.20;;;5.18;;
24153;SDS011;12312;53.362;-1.518;2023-05-10T07:33:03;11.70;;;4.30;;
24153;SDS011;12312;53.362;-1.518;2023-05-10T07:35:47;11.63;;;3.95;;
24153;SDS011;12312;53.362;-1.518;2023-05-10T07:38:31;19.90;;;4.60;;
24153;SDS011;12312;53.362;-1.518;2023-05-10T07:41:15;8.50;;;3.90;;
24153;SDS011;12312;53.362;-1.518;2023-05-10T07:43:59;13.40;;;4.13;;
24153;SDS011;12312;53.362;-1.518;2023-05-10T07:46:43;10.18;;;3.25;;
24153;SDS011;12312;53.362;-1.518;2023-05-10T07:49:27;11.32;;;2.97;;
24153;SDS011;12312;53.362;-1.518;2023-05-10T07:52:11;9.40;;;3.85;;
24153;SDS011;12312;53.362;-1.518;2023-05-10T07:54:55;10.18;;;3.80;;
24153;SDS011;12312;53.362;-1.518;2023-05-10T07:57:41;9.13;;;3.75;;
24153;SDS011;12312;53.362;-1.518;2023-05-10T08:00:25;12.15;;;4.57;;
24153;SDS011;12312;53.362;-1.518;2023-05-10T08:03:09;9.88;;;4.10;;
24153;SDS011;12312;53.362;-1.518;2023-05-10T08:05:53;14.35;;;4.68;;
24153;SDS011;12312;53.362;-1.518;2023-05-10T08:08:38;12.40;;;4.65;;
24153;SDS011;12312;53.362;-1.518;2023-05-10T08:11:22;8.25;;;4.60;;
24153;SDS011;12312;53.362;-1.518;2023-05-10T08:14:06;14.63;;;6.20;;
24153;SDS011;12312;53.362;-1.518;2023-05-10T08:16:50;11.73;;;6.60;;
24153;SDS011;12312;53.362;-1.518;2023-05-10T08:19:35;11.52;;;5.03;;
24153;SDS011;12312;53.362;-1.518;2023-05-10T08:22:19;10.45;;;5.85;;
24153;SDS011;12312;53.362;-1.518;2023-05-10T08:25:03;9.27;;;4.38;;
24153;SDS011;12312;53.362;-1.518;2023-05-10T08:27:47;9.35;;;4.70;;
24153;SDS011;12312;53.362;-1.518;2023-05-10T08:30:31;19.77;;;7.88;;
24153;SDS011;12312;53.362;-1.518;2023-05-10T08:33:15;14.73;;;8.25;;
24153;SDS011;12312;53.362;-1.518;2023-05-10T08:36:01;13.05;;;6.90;;
24153;SDS011;12312;53.362;-1.518;2023-05-10T08:38:45;14.88;;;4.68;;
24153;SDS011;12312;53.362;-1.518;2023-05-10T08:41:29;13.35;;;4.40;;
24153;SDS011;12312;53.362;-1.518;2023-05-10T08:44:17;9.57;;;3.60;;
24153;SDS011;12312;53.362;-1.518;2023-05-10T08:47:04;9.50;;;3.47;;
24153;SDS011;12312;53.362;-1.518;2023-05-10T08:49:50;7.63;;;3.22;;
24153;SDS011;12312;53.362;-1.518;2023-05-10T08:52:35;6.22;;;2.28;;
24153;SDS011;12312;53.362;-1.518;2023-05-10T08:55:24;11.27;;;2.97;;
24153;SDS011;12312;53.362;-1.518;2023-05-10T08:58:09;8.93;;;2.55;;
24153;SDS011;12312;53.362;-1.518;2023-05-10T09:00:53;10.55;;;2.00;;
24153;SDS011;12312;53.362;-1.518;2023-05-10T09:03:39;6.78;;;1.90;;
24153;SDS011;12312;53.362;-1.518;2023-05-10T09:06:23;8.13;;;1.92;;
24153;SDS011;12312;53.362;-1.518;2023-05-10T09:09:08;5.50;;;1.98;;
24153;SDS011;12312;53.362;-1.518;2023-05-10T09:11:52;9.65;;;2.13;;
24153;SDS011;12312;53.362;-1.518;2023-05-10T09:14:37;5.45;;;1.88;;
24153;SDS011;12312;53.362;-1.518;2023-05-10T09:17:23;5.68;;;1.90;;
24153;SDS011;12312;53.362;-1.518;2023-05-10T09:20:08;8.30;;;2.05;;
24153;SDS011;12312;53.362;-1.518;2023-05-10T09:22:52;5.50;;;3.25;;
24153;SDS011;12312;53.362;-1.518;2023-05-10T09:25:36;12.15;;;3.40;;
24153;SDS011;12312;53.362;-1.518;2023-05-10T09:28:22;5.20;;;3.05;;
24153;SDS011;12312;53.362;-1.518;2023-05-10T09:31:06;9.65;;;3.40;;
24153;SDS011;12312;53.362;-1.518;2023-05-10T09:33:50;9.43;;;3.60;;
24153;SDS011;12312;53.362;-1.518;2023-05-10T09:36:35;8.75;;;4.10;;
24153;SDS011;12312;53.362;-1.518;2023-05-10T09:39:19;11.15;;;4.75;;
24153;SDS011;12312;53.362;-1.518;2023-05-10T09:42:04;8.23;;;3.88;;
24153;SDS011;12312;53.362;-1.518;2023-05-10T09:44:50;9.35;;;3.40;;
24153;SDS011;12312;53.362;-1.518;2023-05-10T09:47:34;7.40;;;3.08;;
24153;SDS011;12312;53.362;-1.518;2023-05-10T09:50:20;7.10;;;3.55;;
24153;SDS011;12312;53.362;-1.518;2023-05-10T09:53:04;9.10;;;3.60;;
24153;SDS011;12312;53.362;-1.518;2023-05-10T09:55:48;8.10;;;2.83;;
24153;SDS011;12312;53.362;-1.518;2023-05-10T09:58:36;5.28;;;2.40;;
24153;SDS011;12312;53.362;-1.518;2023-05-10T10:01:21;6.45;;;2.28;;
24153;SDS011;12312;53.362;-1.518;2023-05-10T10:04:09;5.32;;;3.15;;
24153;SDS011;12312;53.362;-1.518;2023-05-10T10:07:01;5.97;;;3.20;;
24153;SDS011;12312;53.362;-1.518;2023-05-10T10:09:48;6.28;;;2.50;;
24153;SDS011;12312;53.362;-1.518;2023-05-10T10:12:33;6.80;;;2.42;;
24153;SDS011;12312;53.362;-1.518;2023-05-10T10:15:18;5.78;;;2.20;;
24153;SDS011;12312;53.362;-1.518;2023-05-10T10:18:03;6.43;;;2.15;;
24153;SDS011;12312;53.362;-1.518;2023-05-10T10:20:49;6.18;;;2.72;;
24153;SDS011;12312;53.362;-1.518;2023-05-10T10:23:36;8.35;;;4.40;;
24153;SDS011;12312;53.362;-1.518;2023-05-10T10:26:21;8.55;;;3.60;;
24153;SDS011;12312;53.362;-1.518;2023-05-10T10:29:19;13.80;;;6.20;;
24153;SDS011;12312;53.362;-1.518;2023-05-10T10:35:12;3.08;;;1.88;;
24153;SDS011;12312;53.362;-1.518;2023-05-10T10:37:56;4.72;;;2.10;;
24153;SDS011;12312;53.362;-1.518;2023-05-10T10:40:41;7.85;;;2.90;;
24153;SDS011;12312;53.362;-1.518;2023-05-10T10:43:26;4.20;;;2.15;;
24153;SDS011;12312;53.362;-1.518;2023-05-10T10:46:12;5.53;;;2.70;;
24153;SDS011;12312;53.362;-1.518;2023-05-10T10:49:09;4.53;;;2.03;;
24153;SDS011;12312;53.362;-1.518;2023-05-10T10:55:20;4.50;;;2.53;;
24153;SDS011;12312;53.362;-1.518;2023-05-10T10:58:09;6.53;;;2.88;;
24153;SDS011;12312;53.362;-1.518;2023-05-10T11:00:53;5.15;;;2.10;;
24153;SDS011;12312;53.362;-1.518;2023-05-10T11:06:44;7.28;;;2.60;;
24153;SDS011;12312;53.362;-1.518;2023-05-10T11:09:27;6.90;;;2.97;;
24153;SDS011;12312;53.362;-1.518;2023-05-10T11:12:11;7.70;;;3.53;;
24153;SDS011;12312;53.362;-1.518;2023-05-10T11:14:56;8.13;;;3.28;;
24153;SDS011;12312;53.362;-1.518;2023-05-10T11:17:41;8.02;;;3.35;;
24153;SDS011;12312;53.362;-1.518;2023-05-10T11:20:33;3.65;;;1.98;;
24153;SDS011;12312;53.362;-1.518;2023-05-10T11:23:23;3.28;;;1.80;;
24153;SDS011;12312;53.362;-1.518;2023-05-10T11:26:07;4.38;;;1.60;;
24153;SDS011;12312;53.362;-1.518;2023-05-10T11:28:54;4.10;;;1.75;;
24153;SDS011;12312;53.362;-1.518;2023-05-10T11:31:46;2.25;;;1.45;;
24153;SDS011;12312;53.362;-1.518;2023-05-10T11:34:31;5.15;;;2.53;;
24153;SDS011;12312;53.362;-1.518;2023-05-10T11:37:19;3.97;;;1.50;;
24153;SDS011;12312;53.362;-1.518;2023-05-10T11:40:03;1.92;;;0.95;;
24153;SDS011;12312;53.362;-1.518;2023-05-10T11:42:47;2.20;;;0.70;;
24153;SDS011;12312;53.362;-1.518;2023-05-10T11:45:31;2.08;;;0.85;;
24153;SDS011;12312;53.362;-1.518;2023-05-10T11:48:16;1.52;;;0.88;;
24153;SDS011;12312;53.362;-1.518;2023-05-10T11:51:06;23.02;;;11.80;;
24153;SDS011;12312;53.362;-1.518;2023-05-10T11:53:55;4.13;;;1.95;;
24153;SDS011;12312;53.362;-1.518;2023-05-10T11:56:40;2.80;;;1.20;;
24153;SDS011;12312;53.362;-1.518;2023-05-10T11:59:24;3.05;;;1.30;;
24153;SDS011;12312;53.362;-1.518;2023-05-10T12:02:09;1.70;;;0.70;;
24153;SDS011;12312;53.362;-1.518;2023-05-10T12:04:54;4.35;;;1.58;;
24153;SDS011;12312;53.362;-1.518;2023-05-10T12:07:39;5.43;;;2.45;;
24153;SDS011;12312;53.362;-1.518;2023-05-10T12:10:26;3.50;;;2.17;;
24153;SDS011;12312;53.362;-1.518;2023-05-10T12:13:11;4.57;;;2.13;;
24153;SDS011;12312;53.362;-1.518;2023-05-10T12:15:57;10.25;;;6.13;;
24153;SDS011;12312;53.362;-1.518;2023-05-10T12:18:42;7.90;;;3.78;;
24153;SDS011;12312;53.362;-1.518;2023-05-10T12:21:26;2.25;;;1.00;;
24153;SDS011;12312;53.362;-1.518;2023-05-10T12:24:12;2.38;;;0.60;;
24153;SDS011;12312;53.362;-1.518;2023-05-10T12:26:58;0.65;;;0.65;;
24153;SDS011;12312;53.362;-1.518;2023-05-10T12:29:42;0.93;;;0.60;;
24153;SDS011;12312;53.362;-1.518;2023-05-10T12:32:37;1.30;;;0.73;;
24153;SDS011;12312;53.362;-1.518;2023-05-10T12:35:23;6.60;;;2.45;;
24153;SDS011;12312;53.362;-1.518;2023-05-10T12:38:23;7.70;;;2.97;;
24153;SDS011;12312;53.362;-1.518;2023-05-10T12:41:17;9.45;;;3.55;;
24153;SDS011;12312;53.362;-1.518;2023-05-10T12:44:02;4.85;;;1.77;;
24153;SDS011;12312;53.362;-1.518;2023-05-10T12:46:46;3.75;;;1.60;;
24153;SDS011;12312;53.362;-1.518;2023-05-10T12:49:30;1.95;;;1.00;;
24153;SDS011;12312;53.362;-1.518;2023-05-10T12:52:15;1.50;;;0.90;;
24153;SDS011;12312;53.362;-1.518;2023-05-10T12:54:59;2.28;;;1.10;;
24153;SDS011;12312;53.362;-1.518;2023-05-10T12:57:43;2.03;;;1.08;;
24153;SDS011;12312;53.362;-1.518;2023-05-10T13:00:27;2.25;;;1.10;;
24153;SDS011;12312;53.362;-1.518;2023-05-10T13:03:12;1.35;;;0.90;;
24153;SDS011;12312;53.362;-1.518;2023-05-10T13:05:55;2.22;;;1.25;;
24153;SDS011;12312;53.362;-1.518;2023-05-10T13:08:39;1.48;;;0.70;;
24153;SDS011;12312;53.362;-1.518;2023-05-10T13:11:23;1.85;;;1.00;;
24153;SDS011;12312;53.362;-1.518;2023-05-10T13:14:08;1.10;;;0.80;;
24153;SDS011;12312;53.362;-1.518;2023-05-10T13:16:52;3.00;;;1.60;;
24153;SDS011;12312;53.362;-1.518;2023-05-10T13:19:36;2.55;;;1.50;;
24153;SDS011;12312;53.362;-1.518;2023-05-10T13:22:20;2.15;;;1.17;;
24153;SDS011;12312;53.362;-1.518;2023-05-10T13:25:05;1.77;;;1.20;;
24153;SDS011;12312;53.362;-1.518;2023-05-10T13:27:50;1.50;;;1.10;;
24153;SDS011;12312;53.362;-1.518;2023-05-10T13:30:34;2.35;;;1.13;;
24153;SDS011;12312;53.362;-1.518;2023-05-10T13:33:18;2.20;;;1.50;;
24153;SDS011;12312;53.362;-1.518;2023-05-10T13:36:02;2.58;;;1.70;;
24153;SDS011;12312;53.362;-1.518;2023-05-10T13:38:46;3.42;;;1.70;;
24153;SDS011;12312;53.362;-1.518;2023-05-10T13:41:30;3.10;;;1.95;;
24153;SDS011;12312;53.362;-1.518;2023-05-10T13:44:14;8.35;;;1.90;;
24153;SDS011;12312;53.362;-1.518;2023-05-10T13:46:59;4.85;;;1.67;;
24153;SDS011;12312;53.362;-1.518;2023-05-10T13:49:43;2.15;;;1.33;;
24153;SDS011;12312;53.362;-1.518;2023-05-10T13:52:27;3.38;;;1.48;;
24153;SDS011;12312;53.362;-1.518;2023-05-10T13:55:11;2.28;;;1.42;;
24153;SDS011;12312;53.362;-1.518;2023-05-10T13:57:57;2.63;;;1.58;;
24153;SDS011;12312;53.362;-1.518;2023-05-10T14:00:41;2.50;;;1.30;;
24153;SDS011;12312;53.362;-1.518;2023-05-10T14:03:26;3.10;;;1.83;;
24153;SDS011;12312;53.362;-1.518;2023-05-10T14:06:10;2.50;;;2.15;;
24153;SDS011;12312;53.362;-1.518;2023-05-10T14:08:55;3.92;;;2.42;;
24153;SDS011;12312;53.362;-1.518;2023-05-10T14:11:39;6.25;;;3.00;;
24153;SDS011;12312;53.362;-1.518;2023-05-10T14:14:26;2.85;;;2.15;;
24153;SDS011;12312;53.362;-1.518;2023-05-10T14:17:12;2.70;;;2.00;;
24153;SDS011;12312;53.362;-1.518;2023-05-10T14:19:56;3.30;;;1.90;;
24153;SDS011;12312;53.362;-1.518;2023-05-10T14:22:40;2.85;;;1.73;;
24153;SDS011;12312;53.362;-1.518;2023-05-10T14:25:24;3.00;;;1.83;;
24153;SDS011;12312;53.362;-1.518;2023-05-10T14:28:09;2.95;;;1.85;;
24153;SDS011;12312;53.362;-1.518;2023-05-10T14:30:53;1.73;;;1.40;;
24153;SDS011;12312;53.362;-1.518;2023-05-10T14:33:37;3.05;;;1.60;;
24153;SDS011;12312;53.362;-1.518;2023-05-10T14:36:21;2.33;;;1.33;;
24153;SDS011;12312;53.362;-1.518;2023-05-10T14:39:06;3.03;;;1.87;;
24153;SDS011;12312;53.362;-1.518;2023-05-10T14:41:50;3.65;;;1.15;;
24153;SDS011;12312;53.362;-1.518;2023-05-10T14:44:35;1.63;;;1.00;;
24153;SDS011;12312;53.362;-1.518;2023-05-10T14:47:20;3.60;;;0.98;;
24153;SDS011;12312;53.362;-1.518;2023-05-10T14:50:04;3.28;;;1.48;;
24153;SDS011;12312;53.362;-1.518;2023-05-10T14:52:49;2.42;;;1.10;;
24153;SDS011;12312;53.362;-1.518;2023-05-10T14:55:33;1.67;;;1.42;;
24153;SDS011;12312;53.362;-1.518;2023-05-10T14:58:18;4.15;;;1.50;;
24153;SDS011;12312;53.362;-1.518;2023-05-10T15:01:03;2.35;;;0.95;;
24153;SDS011;12312;53.362;-1.518;2023-05-10T15:03:47;1.73;;;1.00;;
24153;SDS011;12312;53.362;-1.518;2023-05-10T15:06:32;2.05;;;1.00;;
24153;SDS011;12312;53.362;-1.518;2023-05-10T15:12:26;2.55;;;0.98;;
24153;SDS011;12312;53.362;-1.518;2023-05-10T15:15:10;0.68;;;0.50;;
24153;SDS011;12312;53.362;-1.518;2023-05-10T15:17:57;1.33;;;0.60;;
24153;SDS011;12312;53.362;-1.518;2023-05-10T15:20:41;1.65;;;0.90;;
24153;SDS011;12312;53.362;-1.518;2023-05-10T15:23:25;1.15;;;1.00;;
24153;SDS011;12312;53.362;-1.518;2023-05-10T15:26:10;2.30;;;1.08;;
24153;SDS011;12312;53.362;-1.518;2023-05-10T15:28:54;2.58;;;1.25;;
24153;SDS011;12312;53.362;-1.518;2023-05-10T15:31:38;1.67;;;1.30;;
24153;SDS011;12312;53.362;-1.518;2023-05-10T15:34:23;5.55;;;1.73;;
24153;SDS011;12312;53.362;-1.518;2023-05-10T15:37:07;4.90;;;2.00;;
24153;SDS011;12312;53.362;-1.518;2023-05-10T15:39:51;2.83;;;2.00;;
24153;SDS011;12312;53.362;-1.518;2023-05-10T15:42:35;5.70;;;2.50;;
24153;SDS011;12312;53.362;-1.518;2023-05-10T15:45:19;4.03;;;2.35;;
24153;SDS011;12312;53.362;-1.518;2023-05-10T15:48:07;2.20;;;1.88;;
24153;SDS011;12312;53.362;-1.518;2023-05-10T15:51:01;5.28;;;1.52;;
24153;SDS011;12312;53.362;-1.518;2023-05-10T15:53:45;4.07;;;2.47;;
24153;SDS011;12312;53.362;-1.518;2023-05-10T15:56:29;5.30;;;2.08;;
24153;SDS011;12312;53.362;-1.518;2023-05-10T15:59:13;1.80;;;1.70;;
24153;SDS011;12312;53.362;-1.518;2023-05-10T16:01:57;5.13;;;1.85;;
24153;SDS011;12312;53.362;-1.518;2023-05-10T16:04:42;3.10;;;1.88;;
24153;SDS011;12312;53.362;-1.518;2023-05-10T16:07:27;3.67;;;1.55;;
24153;SDS011;12312;53.362;-1.518;2023-05-10T16:10:11;2.17;;;1.60;;
24153;SDS011;12312;53.362;-1.518;2023-05-10T16:12:55;2.95;;;1.40;;
24153;SDS011;12312;53.362;-1.518;2023-05-10T16:15:39;3.55;;;1.45;;
24153;SDS011;12312;53.362;-1.518;2023-05-10T16:18:24;3.40;;;2.03;;
24153;SDS011;12312;53.362;-1.518;2023-05-10T16:21:08;1.95;;;0.93;;
24153;SDS011;12312;53.362;-1.518;2023-05-10T16:23:52;1.02;;;0.70;;
24153;SDS011;12312;53.362;-1.518;2023-05-10T16:26:37;3.83;;;0.93;;
24153;SDS011;12312;53.362;-1.518;2023-05-10T16:29:23;1.83;;;0.70;;
24153;SDS011;12312;53.362;-1.518;2023-05-10T16:32:07;2.25;;;0.70;;
24153;SDS011;12312;53.362;-1.518;2023-05-10T16:34:51;2.38;;;0.77;;
24153;SDS011;12312;53.362;-1.518;2023-05-10T16:37:36;1.25;;;0.70;;
24153;SDS011;12312;53.362;-1.518;2023-05-10T16:40:20;3.50;;;0.98;;
24153;SDS011;12312;53.362;-1.518;2023-05-10T16:43:05;1.30;;;0.90;;
24153;SDS011;12312;53.362;-1.518;2023-05-10T16:45:50;1.70;;;0.73;;
24153;SDS011;12312;53.362;-1.518;2023-05-10T16:48:34;1.90;;;1.10;;
24153;SDS011;12312;53.362;-1.518;2023-05-10T16:51:18;2.95;;;0.90;;
24153;SDS011;12312;53.362;-1.518;2023-05-10T16:54:03;0.95;;;0.88;;